sensor_id;sensor_type;location;lat;lon;timestamp;P1;durP1;ratioP1;P2;durP2;ratioP2
15667;SDS011;7934;48.710;9.024;2023-04-30T00:01:33;6.60;;;6.10;;
15667;SDS011;7934;48.710;9.024;2023-04-30T00:04:02;6.38;;;5.88;;
15667;SDS011;7934;48.710;9.024;2023-04-30T00:06:29;6.57;;;6.10;;
15667;SDS011;7934;48.710;9.024;2023-04-30T00:08:56;6.37;;;5.87;;
15667;SDS011;7934;48.710;9.024;2023-04-30T00:11:23;7.88;;;6.10;;
15667;SDS011;7934;48.710;9.024;2023-04-30T00:13:50;7.90;;;7.10;;
15667;SDS011;7934;48.710;9.024;2023-04-30T00:16:18;6.80;;;6.30;;
15667;SDS011;7934;48.710;9.024;2023-04-30T00:18:45;7.07;;;6.18;;
15667;SDS011;7934;48.710;9.024;2023-04-30T00:21:13;7.65;;;6.95;;
15667;SDS011;7934;48.710;9.024;2023-04-30T00:23:40;7.88;;;7.18;;
15667;SDS011;7934;48.710;9.024;2023-04-30T00:26:08;8.00;;;7.32;;
15667;SDS011;7934;48.710;9.024;2023-04-30T00:28:35;7.07;;;6.53;;
15667;SDS011;7934;48.710;9.024;2023-04-30T00:31:02;7.43;;;6.72;;
15667;SDS011;7934;48.710;9.024;2023-04-30T00:33:33;8.50;;;7.80;;
15667;SDS011;7934;48.710;9.024;2023-04-30T00:36:00;7.30;;;6.70;;
15667;SDS011;7934;48.710;9.024;2023-04-30T00:38:28;7.93;;;7.23;;
15667;SDS011;7934;48.710;9.024;2023-04-30T00:40:55;8.20;;;7.40;;
15667;SDS011;7934;48.710;9.024;2023-04-30T00:43:27;7.97;;;7.13;;
15667;SDS011;7934;48.710;9.024;2023-04-30T00:45:58;8.05;;;7.30;;
15667;SDS011;7934;48.710;9.024;2023-04-30T00:48:27;8.13;;;7.28;;
15667;SDS011;7934;48.710;9.024;2023-04-30T00:50:55;8.02;;;7.25;;
15667;SDS011;7934;48.710;9.024;2023-04-30T00:53:22;7.97;;;7.17;;
15667;SDS011;7934;48.710;9.024;2023-04-30T00:55:50;8.07;;;7.40;;
15667;SDS011;7934;48.710;9.024;2023-04-30T00:58:18;8.27;;;7.55;;
15667;SDS011;7934;48.710;9.024;2023-04-30T01:00:46;8.10;;;7.30;;
15667;SDS011;7934;48.710;9.024;2023-04-30T01:03:13;8.63;;;7.18;;
15667;SDS011;7934;48.710;9.024;2023-04-30T01:05:40;8.20;;;7.50;;
15667;SDS011;7934;48.710;9.024;2023-04-30T01:08:08;11.73;;;7.15;;
15667;SDS011;7934;48.710;9.024;2023-04-30T01:10:39;8.02;;;7.28;;
15667;SDS011;7934;48.710;9.024;2023-04-30T01:13:11;6.95;;;6.40;;
15667;SDS011;7934;48.710;9.024;2023-04-30T01:15:41;7.55;;;6.85;;
15667;SDS011;7934;48.710;9.024;2023-04-30T01:18:10;7.50;;;6.90;;
15667;SDS011;7934;48.710;9.024;2023-04-30T01:20:41;7.95;;;7.15;;
15667;SDS011;7934;48.710;9.024;2023-04-30T01:23:10;8.53;;;7.63;;
15667;SDS011;7934;48.710;9.024;2023-04-30T01:25:46;8.10;;;7.18;;
15667;SDS011;7934;48.710;9.024;2023-04-30T01:28:19;7.95;;;7.20;;
15667;SDS011;7934;48.710;9.024;2023-04-30T01:30:47;7.93;;;7.23;;
15667;SDS011;7934;48.710;9.024;2023-04-30T01:33:24;8.05;;;7.45;;
15667;SDS011;7934;48.710;9.024;2023-04-30T01:35:57;8.07;;;7.38;;
15667;SDS011;7934;48.710;9.024;2023-04-30T01:38:32;8.93;;;7.78;;
15667;SDS011;7934;48.710;9.024;2023-04-30T01:41:04;9.05;;;8.10;;
15667;SDS011;7934;48.710;9.024;2023-04-30T01:43:37;9.07;;;8.32;;
15667;SDS011;7934;48.710;9.024;2023-04-30T01:46:08;9.77;;;8.25;;
15667;SDS011;7934;48.710;9.024;2023-04-30T01:48:42;8.43;;;7.35;;
15667;SDS011;7934;48.710;9.024;2023-04-30T01:51:14;8.55;;;7.75;;
15667;SDS011;7934;48.710;9.024;2023-04-30T01:53:43;8.50;;;7.80;;
15667;SDS011;7934;48.710;9.024;2023-04-30T01:56:11;8.68;;;7.85;;
15667;SDS011;7934;48.710;9.024;2023-04-30T01:58:41;8.20;;;7.50;;
15667;SDS011;7934;48.710;9.024;2023-04-30T02:01:23;9.25;;;8.35;;
15667;SDS011;7934;48.710;9.024;2023-04-30T02:03:51;9.07;;;8.20;;
15667;SDS011;7934;48.710;9.024;2023-04-30T02:06:18;8.90;;;8.10;;
15667;SDS011;7934;48.710;9.024;2023-04-30T02:08:45;8.82;;;7.90;;
15667;SDS011;7934;48.710;9.024;2023-04-30T02:11:12;9.00;;;8.10;;
15667;SDS011;7934;48.710;9.024;2023-04-30T02:13:41;9.88;;;8.57;;
15667;SDS011;7934;48.710;9.024;2023-04-30T02:16:08;9.48;;;8.35;;
15667;SDS011;7934;48.710;9.024;2023-04-30T02:18:36;10.10;;;9.10;;
15667;SDS011;7934;48.710;9.024;2023-04-30T02:21:03;10.38;;;9.02;;
15667;SDS011;7934;48.710;9.024;2023-04-30T02:23:30;9.02;;;8.23;;
15667;SDS011;7934;48.710;9.024;2023-04-30T02:25:57;10.05;;;8.95;;
15667;SDS011;7934;48.710;9.024;2023-04-30T02:28:25;10.07;;;9.13;;
15667;SDS011;7934;48.710;9.024;2023-04-30T02:30:53;9.45;;;8.55;;
15667;SDS011;7934;48.710;9.024;2023-04-30T02:33:20;10.27;;;9.27;;
15667;SDS011;7934;48.710;9.024;2023-04-30T02:35:47;10.55;;;9.45;;
15667;SDS011;7934;48.710;9.024;2023-04-30T02:38:15;10.98;;;9.82;;
15667;SDS011;7934;48.710;9.024;2023-04-30T02:40:42;10.88;;;9.63;;
15667;SDS011;7934;48.710;9.024;2023-04-30T02:43:09;11.10;;;10.07;;
15667;SDS011;7934;48.710;9.024;2023-04-30T02:45:36;10.77;;;9.75;;
15667;SDS011;7934;48.710;9.024;2023-04-30T02:48:05;11.45;;;10.25;;
15667;SDS011;7934;48.710;9.024;2023-04-30T02:50:32;12.23;;;11.02;;
15667;SDS011;7934;48.710;9.024;2023-04-30T02:52:59;12.23;;;10.75;;
15667;SDS011;7934;48.710;9.024;2023-04-30T02:55:26;11.52;;;10.32;;
15667;SDS011;7934;48.710;9.024;2023-04-30T02:57:54;12.02;;;10.73;;
15667;SDS011;7934;48.710;9.024;2023-04-30T03:00:21;11.90;;;10.70;;
15667;SDS011;7934;48.710;9.024;2023-04-30T03:02:48;12.30;;;11.10;;
15667;SDS011;7934;48.710;9.024;2023-04-30T03:05:17;13.30;;;12.02;;
15667;SDS011;7934;48.710;9.024;2023-04-30T03:07:46;14.55;;;12.52;;
15667;SDS011;7934;48.710;9.024;2023-04-30T03:10:13;13.23;;;11.83;;
15667;SDS011;7934;48.710;9.024;2023-04-30T03:12:43;13.88;;;12.52;;
15667;SDS011;7934;48.710;9.024;2023-04-30T03:15:10;13.25;;;11.80;;
15667;SDS011;7934;48.710;9.024;2023-04-30T03:17:37;14.80;;;12.52;;
15667;SDS011;7934;48.710;9.024;2023-04-30T03:20:05;14.13;;;12.38;;
15667;SDS011;7934;48.710;9.024;2023-04-30T03:22:33;15.75;;;12.32;;
15667;SDS011;7934;48.710;9.024;2023-04-30T03:25:00;14.52;;;12.88;;
15667;SDS011;7934;48.710;9.024;2023-04-30T03:27:28;13.52;;;12.18;;
15667;SDS011;7934;48.710;9.024;2023-04-30T03:29:58;13.48;;;12.02;;
15667;SDS011;7934;48.710;9.024;2023-04-30T03:32:27;13.65;;;12.35;;
15667;SDS011;7934;48.710;9.024;2023-04-30T03:34:55;13.95;;;12.05;;
15667;SDS011;7934;48.710;9.024;2023-04-30T03:37:22;14.43;;;12.93;;
15667;SDS011;7934;48.710;9.024;2023-04-30T03:39:51;13.88;;;12.48;;
15667;SDS011;7934;48.710;9.024;2023-04-30T03:42:18;13.90;;;12.57;;
15667;SDS011;7934;48.710;9.024;2023-04-30T03:44:45;14.68;;;12.98;;
15667;SDS011;7934;48.710;9.024;2023-04-30T03:47:12;13.82;;;12.38;;
15667;SDS011;7934;48.710;9.024;2023-04-30T03:49:40;14.63;;;13.13;;
15667;SDS011;7934;48.710;9.024;2023-04-30T03:52:07;14.85;;;13.35;;
15667;SDS011;7934;48.710;9.024;2023-04-30T03:54:35;14.13;;;12.52;;
15667;SDS011;7934;48.710;9.024;2023-04-30T03:57:03;14.38;;;12.75;;
15667;SDS011;7934;48.710;9.024;2023-04-30T03:59:31;13.93;;;12.50;;
15667;SDS011;7934;48.710;9.024;2023-04-30T04:01:59;15.02;;;12.55;;
15667;SDS011;7934;48.710;9.024;2023-04-30T04:04:26;15.07;;;13.27;;
15667;SDS011;7934;48.710;9.024;2023-04-30T04:06:56;14.23;;;12.73;;
15667;SDS011;7934;48.710;9.024;2023-04-30T04:09:43;14.38;;;12.98;;
15667;SDS011;7934;48.710;9.024;2023-04-30T04:12:11;14.83;;;13.27;;
15667;SDS011;7934;48.710;9.024;2023-04-30T04:14:39;14.80;;;13.33;;
15667;SDS011;7934;48.710;9.024;2023-04-30T04:17:06;15.40;;;13.80;;
15667;SDS011;7934;48.710;9.024;2023-04-30T04:19:33;14.93;;;13.43;;
15667;SDS011;7934;48.710;9.024;2023-04-30T04:22:08;15.45;;;13.85;;
15667;SDS011;7934;48.710;9.024;2023-04-30T04:24:55;14.63;;;13.13;;
15667;SDS011;7934;48.710;9.024;2023-04-30T04:27:24;14.32;;;12.82;;
15667;SDS011;7934;48.710;9.024;2023-04-30T04:29:54;16.00;;;14.17;;
15667;SDS011;7934;48.710;9.024;2023-04-30T04:32:21;14.43;;;12.93;;
15667;SDS011;7934;48.710;9.024;2023-04-30T04:34:49;15.38;;;13.50;;
15667;SDS011;7934;48.710;9.024;2023-04-30T04:37:18;15.07;;;13.50;;
15667;SDS011;7934;48.710;9.024;2023-04-30T04:39:45;14.68;;;13.27;;
15667;SDS011;7934;48.710;9.024;2023-04-30T04:42:13;15.10;;;13.57;;
15667;SDS011;7934;48.710;9.024;2023-04-30T04:44:42;14.30;;;13.00;;
15667;SDS011;7934;48.710;9.024;2023-04-30T04:47:09;15.10;;;13.35;;
15667;SDS011;7934;48.710;9.024;2023-04-30T04:49:37;15.77;;;12.75;;
15667;SDS011;7934;48.710;9.024;2023-04-30T04:52:05;14.02;;;12.60;;
15667;SDS011;7934;48.710;9.024;2023-04-30T04:54:32;13.85;;;12.48;;
15667;SDS011;7934;48.710;9.024;2023-04-30T04:57:02;13.68;;;12.32;;
15667;SDS011;7934;48.710;9.024;2023-04-30T04:59:29;13.88;;;12.40;;
15667;SDS011;7934;48.710;9.024;2023-04-30T05:01:58;13.02;;;11.73;;
15667;SDS011;7934;48.710;9.024;2023-04-30T05:04:25;12.90;;;11.70;;
15667;SDS011;7934;48.710;9.024;2023-04-30T05:06:56;13.77;;;12.18;;
15667;SDS011;7934;48.710;9.024;2023-04-30T05:09:23;12.98;;;11.65;;
15667;SDS011;7934;48.710;9.024;2023-04-30T05:11:50;12.80;;;11.68;;
15667;SDS011;7934;48.710;9.024;2023-04-30T05:14:17;13.18;;;11.70;;
15667;SDS011;7934;48.710;9.024;2023-04-30T05:16:45;13.32;;;11.93;;
15667;SDS011;7934;48.710;9.024;2023-04-30T05:19:14;13.20;;;11.75;;
15667;SDS011;7934;48.710;9.024;2023-04-30T05:21:41;12.85;;;11.63;;
15667;SDS011;7934;48.710;9.024;2023-04-30T05:24:08;11.88;;;10.68;;
15667;SDS011;7934;48.710;9.024;2023-04-30T05:26:36;12.05;;;10.70;;
15667;SDS011;7934;48.710;9.024;2023-04-30T05:29:03;12.93;;;11.07;;
15667;SDS011;7934;48.710;9.024;2023-04-30T05:31:30;12.00;;;10.90;;
15667;SDS011;7934;48.710;9.024;2023-04-30T05:33:57;12.60;;;11.40;;
15667;SDS011;7934;48.710;9.024;2023-04-30T05:36:28;11.98;;;10.77;;
15667;SDS011;7934;48.710;9.024;2023-04-30T05:38:56;11.88;;;10.77;;
15667;SDS011;7934;48.710;9.024;2023-04-30T05:41:23;11.03;;;10.00;;
15667;SDS011;7934;48.710;9.024;2023-04-30T05:43:50;10.73;;;9.73;;
15667;SDS011;7934;48.710;9.024;2023-04-30T05:46:20;11.48;;;10.38;;
15667;SDS011;7934;48.710;9.024;2023-04-30T05:48:47;12.15;;;11.00;;
15667;SDS011;7934;48.710;9.024;2023-04-30T05:51:15;10.52;;;9.60;;
15667;SDS011;7934;48.710;9.024;2023-04-30T05:53:46;10.32;;;9.32;;
15667;SDS011;7934;48.710;9.024;2023-04-30T05:56:14;10.75;;;9.75;;
15667;SDS011;7934;48.710;9.024;2023-04-30T05:58:41;10.93;;;9.73;;
15667;SDS011;7934;48.710;9.024;2023-04-30T06:01:08;11.77;;;10.63;;
15667;SDS011;7934;48.710;9.024;2023-04-30T06:03:36;10.43;;;9.52;;
15667;SDS011;7934;48.710;9.024;2023-04-30T06:06:03;10.65;;;9.65;;
15667;SDS011;7934;48.710;9.024;2023-04-30T06:08:30;10.98;;;9.98;;
15667;SDS011;7934;48.710;9.024;2023-04-30T06:10:59;10.88;;;9.77;;
15667;SDS011;7934;48.710;9.024;2023-04-30T06:13:29;10.88;;;9.93;;
15667;SDS011;7934;48.710;9.024;2023-04-30T06:15:56;10.88;;;9.82;;
15667;SDS011;7934;48.710;9.024;2023-04-30T06:18:23;10.23;;;9.32;;
15667;SDS011;7934;48.710;9.024;2023-04-30T06:20:50;9.65;;;8.77;;
15667;SDS011;7934;48.710;9.024;2023-04-30T06:23:17;10.48;;;9.48;;
15667;SDS011;7934;48.710;9.024;2023-04-30T06:25:45;10.52;;;9.52;;
15667;SDS011;7934;48.710;9.024;2023-04-30T06:28:13;10.40;;;9.43;;
15667;SDS011;7934;48.710;9.024;2023-04-30T06:30:40;10.00;;;9.10;;
15667;SDS011;7934;48.710;9.024;2023-04-30T06:33:07;9.73;;;8.93;;
15667;SDS011;7934;48.710;9.024;2023-04-30T06:35:35;9.73;;;8.82;;
15667;SDS011;7934;48.710;9.024;2023-04-30T06:38:02;9.20;;;8.40;;
15667;SDS011;7934;48.710;9.024;2023-04-30T06:40:29;9.75;;;8.88;;
15667;SDS011;7934;48.710;9.024;2023-04-30T06:42:56;10.27;;;9.27;;
15667;SDS011;7934;48.710;9.024;2023-04-30T06:45:25;9.75;;;8.85;;
15667;SDS011;7934;48.710;9.024;2023-04-30T06:47:53;10.35;;;9.45;;
15667;SDS011;7934;48.710;9.024;2023-04-30T06:50:20;10.00;;;9.00;;
15667;SDS011;7934;48.710;9.024;2023-04-30T06:52:47;10.63;;;9.57;;
15667;SDS011;7934;48.710;9.024;2023-04-30T06:55:14;9.00;;;8.30;;
15667;SDS011;7934;48.710;9.024;2023-04-30T06:57:41;10.20;;;9.35;;
15667;SDS011;7934;48.710;9.024;2023-04-30T07:00:09;9.60;;;8.75;;
15667;SDS011;7934;48.710;9.024;2023-04-30T07:02:37;9.07;;;8.32;;
15667;SDS011;7934;48.710;9.024;2023-04-30T07:05:05;8.23;;;7.43;;
15667;SDS011;7934;48.710;9.024;2023-04-30T07:07:36;8.10;;;7.50;;
15667;SDS011;7934;48.710;9.024;2023-04-30T07:10:03;7.80;;;7.20;;
15667;SDS011;7934;48.710;9.024;2023-04-30T07:12:30;7.35;;;6.75;;
15667;SDS011;7934;48.710;9.024;2023-04-30T07:14:58;7.45;;;6.85;;
15667;SDS011;7934;48.710;9.024;2023-04-30T07:17:25;7.50;;;6.82;;
15667;SDS011;7934;48.710;9.024;2023-04-30T07:19:54;8.00;;;7.28;;
15667;SDS011;7934;48.710;9.024;2023-04-30T07:22:21;8.30;;;7.60;;
15667;SDS011;7934;48.710;9.024;2023-04-30T07:24:48;8.35;;;7.65;;
15667;SDS011;7934;48.710;9.024;2023-04-30T07:27:16;8.35;;;7.65;;
15667;SDS011;7934;48.710;9.024;2023-04-30T07:29:43;7.50;;;6.90;;
15667;SDS011;7934;48.710;9.024;2023-04-30T07:32:10;7.95;;;7.35;;
15667;SDS011;7934;48.710;9.024;2023-04-30T07:34:37;7.38;;;6.78;;
15667;SDS011;7934;48.710;9.024;2023-04-30T07:37:06;7.47;;;6.90;;
15667;SDS011;7934;48.710;9.024;2023-04-30T07:39:34;7.60;;;7.00;;
15667;SDS011;7934;48.710;9.024;2023-04-30T07:42:07;7.65;;;7.03;;
15667;SDS011;7934;48.710;9.024;2023-04-30T07:44:34;7.05;;;6.45;;
15667;SDS011;7934;48.710;9.024;2023-04-30T07:47:01;6.93;;;6.32;;
15667;SDS011;7934;48.710;9.024;2023-04-30T07:49:30;6.40;;;5.90;;
15667;SDS011;7934;48.710;9.024;2023-04-30T07:51:57;6.40;;;5.90;;
15667;SDS011;7934;48.710;9.024;2023-04-30T07:54:27;6.13;;;5.70;;
15667;SDS011;7934;48.710;9.024;2023-04-30T07:56:54;5.63;;;5.27;;
15667;SDS011;7934;48.710;9.024;2023-04-30T07:59:21;5.75;;;5.35;;
15667;SDS011;7934;48.710;9.024;2023-04-30T08:01:49;5.82;;;5.43;;
15667;SDS011;7934;48.710;9.024;2023-04-30T08:04:16;5.33;;;5.00;;
15667;SDS011;7934;48.710;9.024;2023-04-30T08:06:43;5.40;;;5.10;;
15667;SDS011;7934;48.710;9.024;2023-04-30T08:09:10;5.80;;;5.30;;
15667;SDS011;7934;48.710;9.024;2023-04-30T08:11:39;6.07;;;5.57;;
15667;SDS011;7934;48.710;9.024;2023-04-30T08:14:06;6.30;;;5.90;;
15667;SDS011;7934;48.710;9.024;2023-04-30T08:16:33;5.72;;;5.32;;
15667;SDS011;7934;48.710;9.024;2023-04-30T08:19:00;6.10;;;5.70;;
15667;SDS011;7934;48.710;9.024;2023-04-30T08:21:28;5.93;;;5.53;;
15667;SDS011;7934;48.710;9.024;2023-04-30T08:23:55;5.70;;;5.30;;
15667;SDS011;7934;48.710;9.024;2023-04-30T08:26:22;5.28;;;4.88;;
15667;SDS011;7934;48.710;9.024;2023-04-30T08:28:51;5.10;;;4.80;;
15667;SDS011;7934;48.710;9.024;2023-04-30T08:31:18;5.03;;;4.72;;
15667;SDS011;7934;48.710;9.024;2023-04-30T08:33:45;4.65;;;4.35;;
15667;SDS011;7934;48.710;9.024;2023-04-30T08:36:12;4.90;;;4.60;;
15667;SDS011;7934;48.710;9.024;2023-04-30T08:38:42;5.00;;;4.60;;
15667;SDS011;7934;48.710;9.024;2023-04-30T08:41:10;4.65;;;4.35;;
15667;SDS011;7934;48.710;9.024;2023-04-30T08:43:37;4.50;;;4.20;;
15667;SDS011;7934;48.710;9.024;2023-04-30T08:46:06;4.97;;;4.63;;
15667;SDS011;7934;48.710;9.024;2023-04-30T08:48:33;4.70;;;4.30;;
15667;SDS011;7934;48.710;9.024;2023-04-30T08:51:01;5.55;;;4.55;;
15667;SDS011;7934;48.710;9.024;2023-04-30T08:53:28;5.05;;;4.75;;
15667;SDS011;7934;48.710;9.024;2023-04-30T08:55:56;5.40;;;5.00;;
15667;SDS011;7934;48.710;9.024;2023-04-30T08:58:23;4.97;;;4.67;;
15667;SDS011;7934;48.710;9.024;2023-04-30T09:00:53;5.25;;;4.82;;
15667;SDS011;7934;48.710;9.024;2023-04-30T09:03:22;4.85;;;4.55;;
15667;SDS011;7934;48.710;9.024;2023-04-30T09:05:49;5.03;;;4.63;;
15667;SDS011;7934;48.710;9.024;2023-04-30T09:08:17;4.60;;;4.30;;
15667;SDS011;7934;48.710;9.024;2023-04-30T09:10:44;4.80;;;4.40;;
15667;SDS011;7934;48.710;9.024;2023-04-30T09:13:11;4.45;;;4.13;;
15667;SDS011;7934;48.710;9.024;2023-04-30T09:15:39;4.80;;;4.55;;
15667;SDS011;7934;48.710;9.024;2023-04-30T09:18:07;4.55;;;4.25;;
15667;SDS011;7934;48.710;9.024;2023-04-30T09:20:36;4.28;;;4.07;;
15667;SDS011;7934;48.710;9.024;2023-04-30T09:23:04;4.70;;;4.30;;
15667;SDS011;7934;48.710;9.024;2023-04-30T09:25:37;4.07;;;3.77;;
15667;SDS011;7934;48.710;9.024;2023-04-30T09:28:09;3.80;;;3.60;;
15667;SDS011;7934;48.710;9.024;2023-04-30T09:30:40;4.20;;;3.90;;
15667;SDS011;7934;48.710;9.024;2023-04-30T09:33:08;3.75;;;3.63;;
15667;SDS011;7934;48.710;9.024;2023-04-30T09:35:37;4.20;;;3.90;;
15667;SDS011;7934;48.710;9.024;2023-04-30T09:38:05;4.13;;;3.55;;
15667;SDS011;7934;48.710;9.024;2023-04-30T09:40:35;4.00;;;3.60;;
15667;SDS011;7934;48.710;9.024;2023-04-30T09:43:06;3.80;;;3.60;;
15667;SDS011;7934;48.710;9.024;2023-04-30T09:45:53;4.30;;;4.00;;
15667;SDS011;7934;48.710;9.024;2023-04-30T09:48:21;4.45;;;4.15;;
15667;SDS011;7934;48.710;9.024;2023-04-30T09:53:35;4.00;;;3.80;;
15667;SDS011;7934;48.710;9.024;2023-04-30T09:56:04;3.60;;;3.30;;
15667;SDS011;7934;48.710;9.024;2023-04-30T09:58:34;3.80;;;3.58;;
15667;SDS011;7934;48.710;9.024;2023-04-30T10:01:02;3.50;;;3.30;;
15667;SDS011;7934;48.710;9.024;2023-04-30T10:03:31;3.40;;;3.10;;
15667;SDS011;7934;48.710;9.024;2023-04-30T10:06:00;3.63;;;3.43;;
15667;SDS011;7934;48.710;9.024;2023-04-30T10:08:28;3.80;;;3.50;;
15667;SDS011;7934;48.710;9.024;2023-04-30T10:10:58;3.40;;;3.20;;
15667;SDS011;7934;48.710;9.024;2023-04-30T10:13:26;3.25;;;3.10;;
15667;SDS011;7934;48.710;9.024;2023-04-30T10:15:56;3.15;;;2.92;;
15667;SDS011;7934;48.710;9.024;2023-04-30T10:18:26;3.20;;;3.00;;
15667;SDS011;7934;48.710;9.024;2023-04-30T10:20:54;3.80;;;3.55;;
15667;SDS011;7934;48.710;9.024;2023-04-30T10:26:26;3.72;;;3.42;;
15667;SDS011;7934;48.710;9.024;2023-04-30T10:28:54;3.90;;;3.70;;
15667;SDS011;7934;48.710;9.024;2023-04-30T10:31:42;3.92;;;3.70;;
15667;SDS011;7934;48.710;9.024;2023-04-30T10:34:25;4.00;;;3.65;;
15667;SDS011;7934;48.710;9.024;2023-04-30T10:36:55;3.70;;;3.40;;
15667;SDS011;7934;48.710;9.024;2023-04-30T10:39:24;3.33;;;3.13;;
15667;SDS011;7934;48.710;9.024;2023-04-30T10:42:00;3.50;;;3.30;;
15667;SDS011;7934;48.710;9.024;2023-04-30T10:44:31;3.50;;;3.30;;
15667;SDS011;7934;48.710;9.024;2023-04-30T10:46:59;3.50;;;3.30;;
15667;SDS011;7934;48.710;9.024;2023-04-30T10:49:33;3.85;;;3.28;;
15667;SDS011;7934;48.710;9.024;2023-04-30T10:52:02;3.20;;;3.00;;
15667;SDS011;7934;48.710;9.024;2023-04-30T10:54:34;3.50;;;3.30;;
15667;SDS011;7934;48.710;9.024;2023-04-30T10:57:12;3.23;;;3.03;;
15667;SDS011;7934;48.710;9.024;2023-04-30T10:59:41;3.70;;;3.50;;
15667;SDS011;7934;48.710;9.024;2023-04-30T11:02:11;3.58;;;3.38;;
15667;SDS011;7934;48.710;9.024;2023-04-30T11:07:43;3.53;;;3.33;;
15667;SDS011;7934;48.710;9.024;2023-04-30T11:10:36;3.00;;;2.90;;
15667;SDS011;7934;48.710;9.024;2023-04-30T11:13:08;3.70;;;3.17;;
15667;SDS011;7934;48.710;9.024;2023-04-30T11:18:26;2.53;;;2.42;;
15667;SDS011;7934;48.710;9.024;2023-04-30T11:20:53;3.10;;;2.90;;
15667;SDS011;7934;48.710;9.024;2023-04-30T11:23:23;3.10;;;3.00;;
15667;SDS011;7934;48.710;9.024;2023-04-30T11:25:52;3.17;;;3.03;;
15667;SDS011;7934;48.710;9.024;2023-04-30T11:28:21;3.50;;;3.25;;
15667;SDS011;7934;48.710;9.024;2023-04-30T11:30:50;3.60;;;3.40;;
15667;SDS011;7934;48.710;9.024;2023-04-30T11:33:17;4.82;;;4.43;;
15667;SDS011;7934;48.710;9.024;2023-04-30T11:35:44;3.35;;;3.15;;
15667;SDS011;7934;48.710;9.024;2023-04-30T11:38:13;3.78;;;3.38;;
15667;SDS011;7934;48.710;9.024;2023-04-30T11:40:46;3.45;;;3.25;;
15667;SDS011;7934;48.710;9.024;2023-04-30T11:43:25;3.30;;;3.20;;
15667;SDS011;7934;48.710;9.024;2023-04-30T11:46:03;3.30;;;3.15;;
15667;SDS011;7934;48.710;9.024;2023-04-30T11:48:31;3.70;;;3.35;;
15667;SDS011;7934;48.710;9.024;2023-04-30T11:51:01;3.20;;;3.07;;
15667;SDS011;7934;48.710;9.024;2023-04-30T11:53:28;3.20;;;3.03;;
15667;SDS011;7934;48.710;9.024;2023-04-30T11:56:00;3.53;;;3.33;;
15667;SDS011;7934;48.710;9.024;2023-04-30T11:58:35;3.90;;;3.70;;
15667;SDS011;7934;48.710;9.024;2023-04-30T12:01:05;3.65;;;3.45;;
15667;SDS011;7934;48.710;9.024;2023-04-30T12:06:31;3.60;;;3.30;;
15667;SDS011;7934;48.710;9.024;2023-04-30T12:08:59;3.47;;;3.28;;
15667;SDS011;7934;48.710;9.024;2023-04-30T12:11:33;3.25;;;3.05;;
15667;SDS011;7934;48.710;9.024;2023-04-30T12:14:02;3.50;;;3.20;;
15667;SDS011;7934;48.710;9.024;2023-04-30T12:16:38;3.17;;;3.08;;
15667;SDS011;7934;48.710;9.024;2023-04-30T12:19:05;3.03;;;2.90;;
15667;SDS011;7934;48.710;9.024;2023-04-30T12:21:33;3.22;;;3.03;;
15667;SDS011;7934;48.710;9.024;2023-04-30T12:24:04;3.30;;;3.10;;
15667;SDS011;7934;48.710;9.024;2023-04-30T12:26:35;4.18;;;3.88;;
15667;SDS011;7934;48.710;9.024;2023-04-30T12:29:05;3.08;;;2.90;;
15667;SDS011;7934;48.710;9.024;2023-04-30T12:31:35;3.10;;;3.00;;
15667;SDS011;7934;48.710;9.024;2023-04-30T12:34:03;3.57;;;3.37;;
15667;SDS011;7934;48.710;9.024;2023-04-30T12:36:31;3.40;;;3.20;;
15667;SDS011;7934;48.710;9.024;2023-04-30T12:39:01;3.10;;;2.95;;
15667;SDS011;7934;48.710;9.024;2023-04-30T12:41:29;2.80;;;2.70;;
15667;SDS011;7934;48.710;9.024;2023-04-30T12:46:40;3.25;;;3.05;;
15667;SDS011;7934;48.710;9.024;2023-04-30T12:49:11;3.00;;;2.80;;
15667;SDS011;7934;48.710;9.024;2023-04-30T12:51:41;3.47;;;3.28;;
15667;SDS011;7934;48.710;9.024;2023-04-30T12:54:13;3.05;;;2.90;;
15667;SDS011;7934;48.710;9.024;2023-04-30T12:56:57;3.10;;;2.90;;
15667;SDS011;7934;48.710;9.024;2023-04-30T12:59:25;2.72;;;2.53;;
15667;SDS011;7934;48.710;9.024;2023-04-30T13:01:53;3.13;;;3.00;;
15667;SDS011;7934;48.710;9.024;2023-04-30T13:04:21;3.38;;;3.17;;
15667;SDS011;7934;48.710;9.024;2023-04-30T13:06:51;2.90;;;2.80;;
15667;SDS011;7934;48.710;9.024;2023-04-30T13:09:22;2.90;;;2.72;;
15667;SDS011;7934;48.710;9.024;2023-04-30T13:12:15;3.20;;;3.00;;
15667;SDS011;7934;48.710;9.024;2023-04-30T13:15:02;2.70;;;2.60;;
15667;SDS011;7934;48.710;9.024;2023-04-30T13:17:39;3.25;;;3.03;;
15667;SDS011;7934;48.710;9.024;2023-04-30T13:22:54;3.55;;;2.80;;
15667;SDS011;7934;48.710;9.024;2023-04-30T13:25:30;3.35;;;3.17;;
15667;SDS011;7934;48.710;9.024;2023-04-30T13:28:07;3.45;;;3.25;;
15667;SDS011;7934;48.710;9.024;2023-04-30T13:30:35;3.00;;;2.90;;
15667;SDS011;7934;48.710;9.024;2023-04-30T13:35:48;2.88;;;2.78;;
15667;SDS011;7934;48.710;9.024;2023-04-30T13:38:18;4.90;;;2.90;;
15667;SDS011;7934;48.710;9.024;2023-04-30T13:40:46;2.88;;;2.67;;
15667;SDS011;7934;48.710;9.024;2023-04-30T13:43:13;3.17;;;2.90;;
15667;SDS011;7934;48.710;9.024;2023-04-30T13:45:41;2.90;;;2.77;;
15667;SDS011;7934;48.710;9.024;2023-04-30T13:48:08;2.80;;;2.70;;
15667;SDS011;7934;48.710;9.024;2023-04-30T13:50:38;3.03;;;2.83;;
15667;SDS011;7934;48.710;9.024;2023-04-30T13:53:07;3.30;;;3.10;;
15667;SDS011;7934;48.710;9.024;2023-04-30T13:55:37;3.40;;;3.20;;
15667;SDS011;7934;48.710;9.024;2023-04-30T13:58:04;3.55;;;3.25;;
15667;SDS011;7934;48.710;9.024;2023-04-30T14:00:31;3.40;;;3.20;;
15667;SDS011;7934;48.710;9.024;2023-04-30T14:03:03;3.33;;;3.17;;
15667;SDS011;7934;48.710;9.024;2023-04-30T14:05:41;3.20;;;2.93;;
15667;SDS011;7934;48.710;9.024;2023-04-30T14:08:10;3.25;;;2.97;;
15667;SDS011;7934;48.710;9.024;2023-04-30T14:10:40;3.22;;;3.00;;
15667;SDS011;7934;48.710;9.024;2023-04-30T14:13:14;3.50;;;3.20;;
15667;SDS011;7934;48.710;9.024;2023-04-30T14:15:55;3.08;;;2.78;;
15667;SDS011;7934;48.710;9.024;2023-04-30T14:18:49;2.53;;;2.42;;
15667;SDS011;7934;48.710;9.024;2023-04-30T14:21:23;3.05;;;2.80;;
15667;SDS011;7934;48.710;9.024;2023-04-30T14:23:53;3.47;;;3.28;;
15667;SDS011;7934;48.710;9.024;2023-04-30T14:26:20;3.15;;;2.95;;
15667;SDS011;7934;48.710;9.024;2023-04-30T14:28:47;3.07;;;2.87;;
15667;SDS011;7934;48.710;9.024;2023-04-30T14:31:14;2.90;;;2.80;;
15667;SDS011;7934;48.710;9.024;2023-04-30T14:33:43;3.17;;;2.88;;
15667;SDS011;7934;48.710;9.024;2023-04-30T14:36:10;2.97;;;2.78;;
15667;SDS011;7934;48.710;9.024;2023-04-30T14:38:37;2.95;;;2.85;;
15667;SDS011;7934;48.710;9.024;2023-04-30T14:41:06;3.10;;;2.70;;
15667;SDS011;7934;48.710;9.024;2023-04-30T14:43:50;2.90;;;2.50;;
15667;SDS011;7934;48.710;9.024;2023-04-30T14:46:17;3.53;;;2.80;;
15667;SDS011;7934;48.710;9.024;2023-04-30T14:48:44;3.20;;;2.97;;
15667;SDS011;7934;48.710;9.024;2023-04-30T14:51:12;3.50;;;2.92;;
15667;SDS011;7934;48.710;9.024;2023-04-30T14:53:39;3.35;;;3.05;;
15667;SDS011;7934;48.710;9.024;2023-04-30T14:56:08;3.53;;;3.13;;
15667;SDS011;7934;48.710;9.024;2023-04-30T14:58:35;2.90;;;2.80;;
15667;SDS011;7934;48.710;9.024;2023-04-30T15:01:03;3.30;;;3.10;;
15667;SDS011;7934;48.710;9.024;2023-04-30T15:03:30;3.00;;;2.80;;
15667;SDS011;7934;48.710;9.024;2023-04-30T15:05:57;2.60;;;2.50;;
15667;SDS011;7934;48.710;9.024;2023-04-30T15:08:25;2.78;;;2.63;;
15667;SDS011;7934;48.710;9.024;2023-04-30T15:10:54;2.65;;;2.45;;
15667;SDS011;7934;48.710;9.024;2023-04-30T15:13:26;2.75;;;2.65;;
15667;SDS011;7934;48.710;9.024;2023-04-30T15:15:59;2.80;;;2.60;;
15667;SDS011;7934;48.710;9.024;2023-04-30T15:18:26;3.13;;;2.92;;
15667;SDS011;7934;48.710;9.024;2023-04-30T15:20:53;2.95;;;2.65;;
15667;SDS011;7934;48.710;9.024;2023-04-30T15:23:23;3.00;;;2.70;;
15667;SDS011;7934;48.710;9.024;2023-04-30T15:25:51;2.47;;;2.38;;
15667;SDS011;7934;48.710;9.024;2023-04-30T15:28:18;3.03;;;2.78;;
15667;SDS011;7934;48.710;9.024;2023-04-30T15:30:48;2.85;;;2.75;;